sensor_id;sensor_type;location;lat;lon;timestamp;pressure;altitude;pressure_sealevel;temperature;humidity
75855;BME280;64502;59.976;30.316;2023-03-01T00:00:39;101127.44;;;-2.99;54.54
75855;BME280;64502;59.976;30.316;2023-03-01T00:03:04;101133.44;;;-2.99;54.39
75855;BME280;64502;59.976;30.316;2023-03-01T00:05:30;101130.03;;;-2.95;54.17
75855;BME280;64502;59.976;30.316;2023-03-01T00:07:55;101130.03;;;-2.93;55.13
75855;BME280;64502;59.976;30.316;2023-03-01T00:10:21;101134.34;;;-2.89;54.32
75855;BME280;64502;59.976;30.316;2023-03-01T00:12:46;101138.66;;;-2.85;54.56
75855;BME280;64502;59.976;30.316;2023-03-01T00:15:12;101137.81;;;-2.82;54.38
75855;BME280;64502;59.976;30.316;2023-03-01T00:17:37;101136.09;;;-2.80;54.77
75855;BME280;64502;59.976;30.316;2023-03-01T00:20:04;101140.41;;;-2.76;54.10
75855;BME280;64502;59.976;30.316;2023-03-01T00:22:33;101134.41;;;-2.74;54.49
75855;BME280;64502;59.976;30.316;2023-03-01T00:24:58;101143.00;;;-2.75;54.67
75855;BME280;64502;59.976;30.316;2023-03-01T00:27:24;101137.81;;;-2.76;55.05
75855;BME280;64502;59.976;30.316;2023-03-01T00:29:49;101143.00;;;-2.73;54.44
75855;BME280;64502;59.976;30.316;2023-03-01T00:32:15;101138.72;;;-2.68;54.50
75855;BME280;64502;59.976;30.316;2023-03-01T00:34:40;101140.47;;;-2.67;54.66
75855;BME280;64502;59.976;30.316;2023-03-01T00:37:06;101143.03;;;-2.65;55.04
75855;BME280;64502;59.976;30.316;2023-03-01T00:39:32;101141.34;;;-2.62;54.65
75855;BME280;64502;59.976;30.316;2023-03-01T00:41:58;101130.13;;;-2.59;55.01
75855;BME280;64502;59.976;30.316;2023-03-01T00:44:23;101147.38;;;-2.55;54.60
75855;BME280;64502;59.976;30.316;2023-03-01T00:46:49;101137.06;;;-2.54;54.88
75855;BME280;64502;59.976;30.316;2023-03-01T00:49:14;101140.47;;;-2.52;54.64
75855;BME280;64502;59.976;30.316;2023-03-01T00:51:40;101137.91;;;-2.49;55.01
75855;BME280;64502;59.976;30.316;2023-03-01T00:54:09;101133.63;;;-2.45;55.28
75855;BME280;64502;59.976;30.316;2023-03-01T00:56:35;101133.59;;;-2.43;54.59
75855;BME280;64502;59.976;30.316;2023-03-01T00:59:01;101140.50;;;-2.39;55.07
75855;BME280;64502;59.976;30.316;2023-03-01T01:01:28;101139.66;;;-2.37;54.44
75855;BME280;64502;59.976;30.316;2023-03-01T01:04:07;101142.22;;;-2.35;54.74
75855;BME280;64502;59.976;30.316;2023-03-01T01:06:35;101132.75;;;-2.35;54.88
75855;BME280;64502;59.976;30.316;2023-03-01T01:09:02;101128.44;;;-2.36;55.12
75855;BME280;64502;59.976;30.316;2023-03-01T01:11:30;101132.75;;;-2.33;54.89
75855;BME280;64502;59.976;30.316;2023-03-01T01:13:55;101130.19;;;-2.32;55.03
75855;BME280;64502;59.976;30.316;2023-03-01T01:16:23;101134.47;;;-2.32;55.04
75855;BME280;64502;59.976;30.316;2023-03-01T01:18:49;101139.66;;;-2.28;54.93
75855;BME280;64502;59.976;30.316;2023-03-01T01:21:17;101139.69;;;-2.23;55.51
75855;BME280;64502;59.976;30.316;2023-03-01T01:23:43;101144.84;;;-2.18;55.16
75855;BME280;64502;59.976;30.316;2023-03-01T01:26:12;101144.88;;;-2.15;56.00
75855;BME280;64502;59.976;30.316;2023-03-01T01:28:38;101149.16;;;-2.10;54.86
75855;BME280;64502;59.976;30.316;2023-03-01T01:31:05;101146.59;;;-2.10;55.07
75855;BME280;64502;59.976;30.316;2023-03-01T01:33:31;101141.41;;;-2.08;55.37
75855;BME280;64502;59.976;30.316;2023-03-01T01:35:56;101142.28;;;-2.09;55.74
75855;BME280;64502;59.976;30.316;2023-03-01T01:38:22;101137.97;;;-2.09;55.23
75855;BME280;64502;59.976;30.316;2023-03-01T01:40:49;101137.97;;;-2.09;55.42
75855;BME280;64502;59.976;30.316;2023-03-01T01:43:22;101141.41;;;-2.11;55.91
75855;BME280;64502;59.976;30.316;2023-03-01T01:45:49;101137.94;;;-2.13;55.46
75855;BME280;64502;59.976;30.316;2023-03-01T01:48:20;101137.06;;;-2.18;56.03
75855;BME280;64502;59.976;30.316;2023-03-01T01:50:54;101142.25;;;-2.20;55.99
75855;BME280;64502;59.976;30.316;2023-03-01T01:53:21;101137.94;;;-2.26;56.24
75855;BME280;64502;59.976;30.316;2023-03-01T01:55:58;101140.50;;;-2.30;56.17
75855;BME280;64502;59.976;30.316;2023-03-01T01:58:27;101147.41;;;-2.35;56.55
75855;BME280;64502;59.976;30.316;2023-03-01T02:00:54;101149.97;;;-2.41;56.70
75855;BME280;64502;59.976;30.316;2023-03-01T02:03:25;101148.25;;;-2.44;56.85
75855;BME280;64502;59.976;30.316;2023-03-01T02:05:58;101149.97;;;-2.46;56.95
75855;BME280;64502;59.976;30.316;2023-03-01T02:08:28;101153.41;;;-2.49;57.14
75855;BME280;64502;59.976;30.316;2023-03-01T02:10:58;101158.56;;;-2.53;57.60
75855;BME280;64502;59.976;30.316;2023-03-01T02:13:25;101164.56;;;-2.54;57.66
75855;BME280;64502;59.976;30.316;2023-03-01T02:15:51;101162.88;;;-2.55;58.29
75855;BME280;64502;59.976;30.316;2023-03-01T02:18:20;101171.50;;;-2.56;58.26
75855;BME280;64502;59.976;30.316;2023-03-01T02:23:36;101168.88;;;-2.61;58.94
75855;BME280;64502;59.976;30.316;2023-03-01T02:28:34;101170.59;;;-2.63;58.42
75855;BME280;64502;59.976;30.316;2023-03-01T02:31:03;101165.41;;;-2.66;59.03
75855;BME280;64502;59.976;30.316;2023-03-01T02:33:48;101174.88;;;-2.66;59.21
75855;BME280;64502;59.976;30.316;2023-03-01T02:36:18;101180.88;;;-2.68;59.46
75855;BME280;64502;59.976;30.316;2023-03-01T02:38:44;101157.63;;;-2.71;59.54
75855;BME280;64502;59.976;30.316;2023-03-01T02:41:11;101179.19;;;-2.69;59.96
75855;BME280;64502;59.976;30.316;2023-03-01T02:43:38;101174.88;;;-2.71;59.82
75855;BME280;64502;59.976;30.316;2023-03-01T02:46:13;101182.63;;;-2.70;59.75
75855;BME280;64502;59.976;30.316;2023-03-01T02:48:42;101174.88;;;-2.71;59.58
75855;BME280;64502;59.976;30.316;2023-03-01T02:53:56;101177.47;;;-2.73;59.99
75855;BME280;64502;59.976;30.316;2023-03-01T02:56:24;101176.59;;;-2.75;59.75
75855;BME280;64502;59.976;30.316;2023-03-01T02:58:50;101177.44;;;-2.77;60.06
75855;BME280;64502;59.976;30.316;2023-03-01T03:01:20;101177.44;;;-2.80;60.21
75855;BME280;64502;59.976;30.316;2023-03-01T03:03:46;101176.53;;;-2.82;60.60
75855;BME280;64502;59.976;30.316;2023-03-01T03:06:12;101177.41;;;-2.82;60.34
75855;BME280;64502;59.976;30.316;2023-03-01T03:08:37;101176.53;;;-2.84;60.01
75855;BME280;64502;59.976;30.316;2023-03-01T03:11:03;101172.25;;;-2.86;59.93
75855;BME280;64502;59.976;30.316;2023-03-01T03:13:29;101168.78;;;-2.88;60.21
75855;BME280;64502;59.976;30.316;2023-03-01T03:15:57;101180.84;;;-2.89;60.16
75855;BME280;64502;59.976;30.316;2023-03-01T03:18:24;101174.78;;;-2.93;60.34
75855;BME280;64502;59.976;30.316;2023-03-01T03:20:53;101171.34;;;-2.93;60.58
75855;BME280;64502;59.976;30.316;2023-03-01T03:23:22;101173.03;;;-2.95;60.36
75855;BME280;64502;59.976;30.316;2023-03-01T03:25:49;101183.38;;;-2.97;60.32
75855;BME280;64502;59.976;30.316;2023-03-01T03:28:14;101180.78;;;-3.03;60.50
75855;BME280;64502;59.976;30.316;2023-03-01T03:30:41;101182.47;;;-3.05;60.58
75855;BME280;64502;59.976;30.316;2023-03-01T03:33:07;101180.75;;;-3.07;60.11
75855;BME280;64502;59.976;30.316;2023-03-01T03:35:46;101183.31;;;-3.09;60.44
75855;BME280;64502;59.976;30.316;2023-03-01T03:38:14;101183.31;;;-3.14;61.06
75855;BME280;64502;59.976;30.316;2023-03-01T03:40:43;101182.41;;;-3.19;60.92
75855;BME280;64502;59.976;30.316;2023-03-01T03:43:15;101191.88;;;-3.19;60.52
75855;BME280;64502;59.976;30.316;2023-03-01T03:45:41;101178.94;;;-3.24;61.15
75855;BME280;64502;59.976;30.316;2023-03-01T03:48:08;101185.81;;;-3.24;61.13
75855;BME280;64502;59.976;30.316;2023-03-01T03:50:35;101178.91;;;-3.27;61.68
75855;BME280;64502;59.976;30.316;2023-03-01T03:53:03;101184.06;;;-3.27;61.40
75855;BME280;64502;59.976;30.316;2023-03-01T03:55:28;101186.63;;;-3.28;61.18
75855;BME280;64502;59.976;30.316;2023-03-01T03:57:57;101189.19;;;-3.33;61.74
75855;BME280;64502;59.976;30.316;2023-03-01T04:00:25;101199.50;;;-3.33;61.29
75855;BME280;64502;59.976;30.316;2023-03-01T04:02:51;101201.22;;;-3.33;60.93
75855;BME280;64502;59.976;30.316;2023-03-01T04:05:18;101197.78;;;-3.36;61.34
75855;BME280;64502;59.976;30.316;2023-03-01T04:07:45;101189.16;;;-3.38;61.61
75855;BME280;64502;59.976;30.316;2023-03-01T04:10:16;101198.63;;;-3.37;61.58
75855;BME280;64502;59.976;30.316;2023-03-01T04:12:41;101185.72;;;-3.40;61.63
75855;BME280;64502;59.976;30.316;2023-03-01T04:15:11;101184.84;;;-3.40;61.71
75855;BME280;64502;59.976;30.316;2023-03-01T04:17:41;101185.69;;;-3.43;62.22
75855;BME280;64502;59.976;30.316;2023-03-01T04:20:09;101189.13;;;-3.45;61.52
75855;BME280;64502;59.976;30.316;2023-03-01T04:22:36;101185.66;;;-3.49;62.25
75855;BME280;64502;59.976;30.316;2023-03-01T04:25:02;101177.91;;;-3.52;62.18
75855;BME280;64502;59.976;30.316;2023-03-01T04:27:27;101188.22;;;-3.50;62.26
75855;BME280;64502;59.976;30.316;2023-03-01T04:29:53;101187.34;;;-3.51;62.24
75855;BME280;64502;59.976;30.316;2023-03-01T04:32:18;101196.81;;;-3.51;62.23
75855;BME280;64502;59.976;30.316;2023-03-01T04:34:44;101185.63;;;-3.53;62.16
75855;BME280;64502;59.976;30.316;2023-03-01T04:37:09;101184.72;;;-3.55;62.07
75855;BME280;64502;59.976;30.316;2023-03-01T04:39:35;101191.63;;;-3.56;62.73
75855;BME280;64502;59.976;30.316;2023-03-01T04:42:14;101187.31;;;-3.55;62.41
75855;BME280;64502;59.976;30.316;2023-03-01T04:44:40;101202.78;;;-3.55;62.74
75855;BME280;64502;59.976;30.316;2023-03-01T04:47:05;101207.94;;;-3.55;63.18
75855;BME280;64502;59.976;30.316;2023-03-01T04:49:31;101211.38;;;-3.55;62.43
75855;BME280;64502;59.976;30.316;2023-03-01T04:51:57;101215.72;;;-3.54;63.44
75855;BME280;64502;59.976;30.316;2023-03-01T04:54:29;101230.34;;;-3.51;62.26
75855;BME280;64502;59.976;30.316;2023-03-01T04:56:55;101228.59;;;-3.52;62.71
75855;BME280;64502;59.976;30.316;2023-03-01T04:59:20;101225.16;;;-3.53;62.96
75855;BME280;64502;59.976;30.316;2023-03-01T05:01:50;101234.66;;;-3.50;63.10
75855;BME280;64502;59.976;30.316;2023-03-01T05:04:15;101243.25;;;-3.50;63.11
75855;BME280;64502;59.976;30.316;2023-03-01T05:06:41;101240.66;;;-3.51;62.84
75855;BME280;64502;59.976;30.316;2023-03-01T05:09:06;101241.53;;;-3.51;61.92
75855;BME280;64502;59.976;30.316;2023-03-01T05:11:32;101231.22;;;-3.51;62.61
75855;BME280;64502;59.976;30.316;2023-03-01T05:14:04;101240.66;;;-3.51;62.46
75855;BME280;64502;59.976;30.316;2023-03-01T05:16:30;101246.66;;;-3.52;63.00
75855;BME280;64502;59.976;30.316;2023-03-01T05:18:56;101231.22;;;-3.51;62.46
75855;BME280;64502;59.976;30.316;2023-03-01T05:21:22;101246.69;;;-3.51;63.35
75855;BME280;64502;59.976;30.316;2023-03-01T05:23:48;101243.25;;;-3.50;62.85
75855;BME280;64502;59.976;30.316;2023-03-01T05:26:15;101241.53;;;-3.49;62.94
75855;BME280;64502;59.976;30.316;2023-03-01T05:28:43;101238.06;;;-3.50;62.94
75855;BME280;64502;59.976;30.316;2023-03-01T05:31:09;101226.94;;;-3.44;63.31
75855;BME280;64502;59.976;30.316;2023-03-01T05:33:39;101242.50;;;-3.38;62.18
75855;BME280;64502;59.976;30.316;2023-03-01T05:36:07;101236.47;;;-3.37;62.90
75855;BME280;64502;59.976;30.316;2023-03-01T05:38:33;101229.59;;;-3.35;62.80
75855;BME280;64502;59.976;30.316;2023-03-01T05:40:59;101235.66;;;-3.30;62.57
75855;BME280;64502;59.976;30.316;2023-03-01T05:43:25;101242.56;;;-3.26;62.34
75855;BME280;64502;59.976;30.316;2023-03-01T05:45:51;101240.03;;;-3.18;62.23
75855;BME280;64502;59.976;30.316;2023-03-01T05:48:16;101241.81;;;-3.11;62.44
75855;BME280;64502;59.976;30.316;2023-03-01T05:50:45;101248.72;;;-3.05;62.21
75855;BME280;64502;59.976;30.316;2023-03-01T05:53:25;101245.31;;;-2.98;61.85
75855;BME280;64502;59.976;30.316;2023-03-01T05:55:52;101248.78;;;-2.93;61.70
75855;BME280;64502;59.976;30.316;2023-03-01T05:58:19;101244.53;;;-2.86;61.62
75855;BME280;64502;59.976;30.316;2023-03-01T06:00:47;101246.25;;;-2.84;62.07
75855;BME280;64502;59.976;30.316;2023-03-01T06:03:15;101243.72;;;-2.81;61.75
75855;BME280;64502;59.976;30.316;2023-03-01T06:05:42;101241.97;;;-2.83;61.51
75855;BME280;64502;59.976;30.316;2023-03-01T06:08:10;101241.09;;;-2.84;61.01
75855;BME280;64502;59.976;30.316;2023-03-01T06:10:35;101239.38;;;-2.82;61.28
75855;BME280;64502;59.976;30.316;2023-03-01T06:13:01;101245.41;;;-2.83;61.59
75855;BME280;64502;59.976;30.316;2023-03-01T06:15:29;101236.78;;;-2.82;61.27
75855;BME280;64502;59.976;30.316;2023-03-01T06:17:55;101248.81;;;-2.84;61.69
75855;BME280;64502;59.976;30.316;2023-03-01T06:20:26;101244.56;;;-2.83;62.32
75855;BME280;64502;59.976;30.316;2023-03-01T06:22:52;101242.81;;;-2.86;61.62
75855;BME280;64502;59.976;30.316;2023-03-01T06:25:20;101241.06;;;-2.87;61.55
75855;BME280;64502;59.976;30.316;2023-03-01T06:27:47;101240.25;;;-2.83;61.66
75855;BME280;64502;59.976;30.316;2023-03-01T06:30:15;101227.34;;;-2.80;61.62
75855;BME280;64502;59.976;30.316;2023-03-01T06:32:41;101230.78;;;-2.76;61.54
75855;BME280;64502;59.976;30.316;2023-03-01T06:35:08;101223.06;;;-2.73;61.36
75855;BME280;64502;59.976;30.316;2023-03-01T06:37:33;101229.13;;;-2.66;61.25
75855;BME280;64502;59.976;30.316;2023-03-01T06:40:01;101229.13;;;-2.66;60.80
75855;BME280;64502;59.976;30.316;2023-03-01T06:42:32;101233.44;;;-2.64;61.12
75855;BME280;64502;59.976;30.316;2023-03-01T06:45:05;101229.16;;;-2.62;61.24
75855;BME280;64502;59.976;30.316;2023-03-01T06:47:32;101242.94;;;-2.58;61.09
75855;BME280;64502;59.976;30.316;2023-03-01T06:50:02;101241.25;;;-2.56;61.17
75855;BME280;64502;59.976;30.316;2023-03-01T06:52:28;101246.41;;;-2.53;61.03
75855;BME280;64502;59.976;30.316;2023-03-01T06:54:53;101238.66;;;-2.52;60.93
75855;BME280;64502;59.976;30.316;2023-03-01T06:57:19;101236.13;;;-2.46;60.40
75855;BME280;64502;59.976;30.316;2023-03-01T06:59:46;101236.97;;;-2.42;60.28
75855;BME280;64502;59.976;30.316;2023-03-01T07:02:13;101236.97;;;-2.42;60.28
75855;BME280;64502;59.976;30.316;2023-03-01T07:04:40;101239.56;;;-2.42;60.45
75855;BME280;64502;59.976;30.316;2023-03-01T07:07:06;101234.41;;;-2.42;60.26
75855;BME280;64502;59.976;30.316;2023-03-01T07:09:32;101232.69;;;-2.37;60.45
75855;BME280;64502;59.976;30.316;2023-03-01T07:11:58;101236.16;;;-2.32;60.21
75855;BME280;64502;59.976;30.316;2023-03-01T07:14:23;101250.78;;;-2.28;60.21
75855;BME280;64502;59.976;30.316;2023-03-01T07:16:53;101243.06;;;-2.26;60.50
75855;BME280;64502;59.976;30.316;2023-03-01T07:19:19;101235.31;;;-2.21;60.30
75855;BME280;64502;59.976;30.316;2023-03-01T07:21:45;101234.47;;;-2.17;59.63
75855;BME280;64502;59.976;30.316;2023-03-01T07:24:10;101229.28;;;-2.11;59.80
75855;BME280;64502;59.976;30.316;2023-03-01T07:26:36;101236.19;;;-2.09;60.68
75855;BME280;64502;59.976;30.316;2023-03-01T07:29:06;101231.91;;;-2.01;59.45
75855;BME280;64502;59.976;30.316;2023-03-01T07:31:33;101229.31;;;-1.97;59.45
75855;BME280;64502;59.976;30.316;2023-03-01T07:33:58;101230.19;;;-1.94;59.05
75855;BME280;64502;59.976;30.316;2023-03-01T07:36:24;101227.63;;;-1.88;59.46
75855;BME280;64502;59.976;30.316;2023-03-01T07:38:50;101220.72;;;-1.89;59.22
75855;BME280;64502;59.976;30.316;2023-03-01T07:41:16;101224.19;;;-1.85;58.92
75855;BME280;64502;59.976;30.316;2023-03-01T07:43:42;101237.97;;;-1.88;59.29
75855;BME280;64502;59.976;30.316;2023-03-01T07:46:08;101228.47;;;-1.86;58.64
75855;BME280;64502;59.976;30.316;2023-03-01T07:48:33;101223.31;;;-1.78;58.71
75855;BME280;64502;59.976;30.316;2023-03-01T07:51:00;101212.09;;;-1.75;58.05
75855;BME280;64502;59.976;30.316;2023-03-01T07:53:27;101212.97;;;-1.73;58.61
75855;BME280;64502;59.976;30.316;2023-03-01T07:56:10;101228.50;;;-1.66;58.44
75855;BME280;64502;59.976;30.316;2023-03-01T07:58:37;101200.91;;;-1.64;57.95
75855;BME280;64502;59.976;30.316;2023-03-01T08:01:12;101201.75;;;-1.59;57.89
75855;BME280;64502;59.976;30.316;2023-03-01T08:03:38;101181.91;;;-1.49;57.70
75855;BME280;64502;59.976;30.316;2023-03-01T08:06:06;101182.75;;;-1.36;57.65
75855;BME280;64502;59.976;30.316;2023-03-01T08:08:33;101184.47;;;-1.24;56.56
75855;BME280;64502;59.976;30.316;2023-03-01T08:11:00;101187.91;;;-1.15;56.87
75855;BME280;64502;59.976;30.316;2023-03-01T08:13:27;101183.53;;;-1.09;56.90
75855;BME280;64502;59.976;30.316;2023-03-01T08:15:53;101186.09;;;-0.99;56.72
75855;BME280;64502;59.976;30.316;2023-03-01T08:18:19;101168.84;;;-0.95;56.57
75855;BME280;64502;59.976;30.316;2023-03-01T08:20:46;101164.50;;;-0.87;56.13
75855;BME280;64502;59.976;30.316;2023-03-01T08:23:12;101177.38;;;-0.75;56.72
75855;BME280;64502;59.976;30.316;2023-03-01T08:25:37;101174.75;;;-0.62;55.96
75855;BME280;64502;59.976;30.316;2023-03-01T08:28:04;101179.88;;;-0.55;56.01
75855;BME280;64502;59.976;30.316;2023-03-01T08:30:30;101176.41;;;-0.51;55.50
75855;BME280;64502;59.976;30.316;2023-03-01T08:32:56;101185.00;;;-0.38;55.36
75855;BME280;64502;59.976;30.316;2023-03-01T08:35:22;101182.25;;;-0.19;55.29
75855;BME280;64502;59.976;30.316;2023-03-01T08:37:48;101177.00;;;-0.04;53.91
75855;BME280;64502;59.976;30.316;2023-03-01T08:40:14;101187.38;;;-0.07;54.61
75855;BME280;64502;59.976;30.316;2023-03-01T08:42:41;101202.91;;;0.01;54.09
75855;BME280;64502;59.976;30.316;2023-03-01T08:45:09;101182.09;;;0.05;54.87
75855;BME280;64502;59.976;30.316;2023-03-01T08:47:43;101185.50;;;0.15;54.48
75855;BME280;64502;59.976;30.316;2023-03-01T08:50:10;101182.97;;;0.03;54.37
75855;BME280;64502;59.976;30.316;2023-03-01T08:52:36;101177.75;;;0.10;54.58
75855;BME280;64502;59.976;30.316;2023-03-01T08:55:03;101163.81;;;0.22;54.51
75855;BME280;64502;59.976;30.316;2023-03-01T08:57:30;101184.41;;;0.40;53.26
75855;BME280;64502;59.976;30.316;2023-03-01T08:59:56;101171.41;;;0.45;53.25
75855;BME280;64502;59.976;30.316;2023-03-01T09:02:21;101173.81;;;0.62;53.22
75855;BME280;64502;59.976;30.316;2023-03-01T09:04:47;101161.59;;;0.73;53.00
75855;BME280;64502;59.976;30.316;2023-03-01T09:07:13;101156.28;;;0.84;52.60
75855;BME280;64502;59.976;30.316;2023-03-01T09:09:38;101160.44;;;1.00;52.79
75855;BME280;64502;59.976;30.316;2023-03-01T09:12:05;101166.44;;;1.07;52.10
75855;BME280;64502;59.976;30.316;2023-03-01T09:14:31;101152.59;;;1.03;52.48
75855;BME280;64502;59.976;30.316;2023-03-01T09:16:56;101152.50;;;1.11;52.37
75855;BME280;64502;59.976;30.316;2023-03-01T09:19:22;101181.22;;;1.00;51.61
75855;BME280;64502;59.976;30.316;2023-03-01T09:21:48;101151.78;;;1.00;51.93
75855;BME280;64502;59.976;30.316;2023-03-01T09:24:25;101157.19;;;0.81;52.87
75855;BME280;64502;59.976;30.316;2023-03-01T09:26:53;101165.19;;;0.60;52.64
75855;BME280;64502;59.976;30.316;2023-03-01T09:29:20;101154.03;;;0.49;53.58
75855;BME280;64502;59.976;30.316;2023-03-01T09:31:46;101155.88;;;0.39;53.88
75855;BME280;64502;59.976;30.316;2023-03-01T09:34:13;101167.28;;;0.22;54.17
75855;BME280;64502;59.976;30.316;2023-03-01T09:36:41;101148.16;;;0.33;54.58
75855;BME280;64502;59.976;30.316;2023-03-01T09:39:07;101142.03;;;0.41;53.68
75855;BME280;64502;59.976;30.316;2023-03-01T09:41:54;101156.53;;;0.59;54.22
75855;BME280;64502;59.976;30.316;2023-03-01T09:47:04;101144.34;;;0.69;53.23
75855;BME280;64502;59.976;30.316;2023-03-01T09:49:33;101135.66;;;0.70;53.50
75855;BME280;64502;59.976;30.316;2023-03-01T09:54:45;101129.13;;;1.13;53.71
75855;BME280;64502;59.976;30.316;2023-03-01T09:57:19;101136.69;;;1.28;52.28
75855;BME280;64502;59.976;30.316;2023-03-01T10:10:38;101131.13;;;0.91;53.04
75855;BME280;64502;59.976;30.316;2023-03-01T10:13:17;101140.72;;;0.82;53.76
75855;BME280;64502;59.976;30.316;2023-03-01T10:15:50;101110.50;;;0.77;53.67
75855;BME280;64502;59.976;30.316;2023-03-01T10:18:31;101131.16;;;0.84;53.90
75855;BME280;64502;59.976;30.316;2023-03-01T10:21:01;101100.75;;;0.93;53.95
75855;BME280;64502;59.976;30.316;2023-03-01T10:23:30;101117.09;;;1.04;53.78
75855;BME280;64502;59.976;30.316;2023-03-01T10:29:00;101103.44;;;1.53;52.99
75855;BME280;64502;59.976;30.316;2023-03-01T10:31:31;101082.53;;;1.58;53.05
75855;BME280;64502;59.976;30.316;2023-03-01T10:34:07;101083.75;;;1.33;53.99
75855;BME280;64502;59.976;30.316;2023-03-01T10:36:33;101081.28;;;1.26;54.54
75855;BME280;64502;59.976;30.316;2023-03-01T10:38:59;101086.41;;;1.32;55.19
75855;BME280;64502;59.976;30.316;2023-03-01T10:41:28;101103.03;;;1.17;55.36
75855;BME280;64502;59.976;30.316;2023-03-01T10:43:56;101079.06;;;0.97;55.86
75855;BME280;64502;59.976;30.316;2023-03-01T10:49:21;101067.03;;;0.89;57.09
75855;BME280;64502;59.976;30.316;2023-03-01T10:51:49;101053.19;;;0.89;57.69
75855;BME280;64502;59.976;30.316;2023-03-01T10:56:55;101050.34;;;1.06;57.39
75855;BME280;64502;59.976;30.316;2023-03-01T10:59:28;101053.72;;;1.14;57.73
75855;BME280;64502;59.976;30.316;2023-03-01T11:02:28;101057.06;;;1.22;57.85
75855;BME280;64502;59.976;30.316;2023-03-01T11:05:01;101054.47;;;1.22;57.70
75855;BME280;64502;59.976;30.316;2023-03-01T11:07:27;101041.44;;;1.24;58.02
75855;BME280;64502;59.976;30.316;2023-03-01T11:09:53;101037.06;;;1.27;58.76
75855;BME280;64502;59.976;30.316;2023-03-01T11:12:20;101032.66;;;1.34;58.08
75855;BME280;64502;59.976;30.316;2023-03-01T11:14:55;101025.63;;;1.39;58.46
75855;BME280;64502;59.976;30.316;2023-03-01T11:17:27;101022.16;;;1.39;58.57
75855;BME280;64502;59.976;30.316;2023-03-01T11:20:34;101016.84;;;1.46;59.27
75855;BME280;64502;59.976;30.316;2023-03-01T11:23:10;101012.53;;;1.45;59.12
75855;BME280;64502;59.976;30.316;2023-03-01T11:25:38;100997.78;;;1.44;58.94
75855;BME280;64502;59.976;30.316;2023-03-01T11:28:07;101001.25;;;1.46;58.96
75855;BME280;64502;59.976;30.316;2023-03-01T11:30:44;101002.03;;;1.50;59.39
75855;BME280;64502;59.976;30.316;2023-03-01T11:36:05;101008.00;;;1.57;59.05
75855;BME280;64502;59.976;30.316;2023-03-01T11:38:35;101010.09;;;1.33;59.63
75855;BME280;64502;59.976;30.316;2023-03-01T11:41:12;101000.72;;;1.26;59.33
75855;BME280;64502;59.976;30.316;2023-03-01T11:44:21;101002.56;;;1.18;59.55
75855;BME280;64502;59.976;30.316;2023-03-01T11:55:46;101001.06;;;1.00;62.26
75855;BME280;64502;59.976;30.316;2023-03-01T11:58:48;100997.63;;;0.98;62.48
75855;BME280;64502;59.976;30.316;2023-03-01T12:01:43;100985.69;;;0.87;62.89
75855;BME280;64502;59.976;30.316;2023-03-01T12:07:52;100979.06;;;0.63;64.97
75855;BME280;64502;59.976;30.316;2023-03-01T12:10:57;100980.06;;;0.53;65.24
75855;BME280;64502;59.976;30.316;2023-03-01T12:16:20;100970.66;;;0.43;65.95
75855;BME280;64502;59.976;30.316;2023-03-01T12:27:19;100977.81;;;0.24;69.02
75855;BME280;64502;59.976;30.316;2023-03-01T12:30:14;100970.09;;;0.18;68.94
75855;BME280;64502;59.976;30.316;2023-03-01T12:32:54;100952.88;;;0.14;70.51
75855;BME280;64502;59.976;30.316;2023-03-01T12:35:34;100943.34;;;0.13;71.73
75855;BME280;64502;59.976;30.316;2023-03-01T12:38:20;100947.72;;;0.08;70.92
75855;BME280;64502;59.976;30.316;2023-03-01T12:43:29;100938.28;;;0.04;72.48
75855;BME280;64502;59.976;30.316;2023-03-01T12:51:28;100934.88;;;-0.03;74.91
75855;BME280;64502;59.976;30.316;2023-03-01T12:53:57;100940.97;;;-0.09;75.75
75855;BME280;64502;59.976;30.316;2023-03-01T12:56:32;100935.84;;;-0.12;75.28
75855;BME280;64502;59.976;30.316;2023-03-01T12:59:21;100920.34;;;-0.18;76.24
75855;BME280;64502;59.976;30.316;2023-03-01T13:02:06;100923.84;;;-0.19;76.87
75855;BME280;64502;59.976;30.316;2023-03-01T13:07:07;100916.94;;;-0.21;76.54
75855;BME280;64502;59.976;30.316;2023-03-01T13:09:55;100922.91;;;-0.13;76.78
75855;BME280;64502;59.976;30.316;2023-03-01T13:12:46;100909.03;;;-0.12;76.78
75855;BME280;64502;59.976;30.316;2023-03-01T13:17:48;100922.09;;;-0.20;77.99
75855;BME280;64502;59.976;30.316;2023-03-01T13:20:17;100927.28;;;-0.20;78.64
75855;BME280;64502;59.976;30.316;2023-03-01T13:22:45;100942.84;;;-0.18;78.40
75855;BME280;64502;59.976;30.316;2023-03-01T13:25:19;100925.59;;;-0.26;79.02
75855;BME280;64502;59.976;30.316;2023-03-01T13:27:46;100920.47;;;-0.30;79.47
75855;BME280;64502;59.976;30.316;2023-03-01T13:35:58;100912.78;;;-0.39;80.65
75855;BME280;64502;59.976;30.316;2023-03-01T13:41:12;100938.75;;;-0.41;79.92
75855;BME280;64502;59.976;30.316;2023-03-01T13:43:38;100956.84;;;-0.39;80.00
75855;BME280;64502;59.976;30.316;2023-03-01T13:46:20;100966.34;;;-0.37;79.55
75855;BME280;64502;59.976;30.316;2023-03-01T13:48:53;100950.78;;;-0.38;79.58
75855;BME280;64502;59.976;30.316;2023-03-01T13:51:27;100945.63;;;-0.40;80.26
75855;BME280;64502;59.976;30.316;2023-03-01T13:53:55;100949.06;;;-0.39;80.16
75855;BME280;64502;59.976;30.316;2023-03-01T13:56:27;100946.53;;;-0.41;79.85
75855;BME280;64502;59.976;30.316;2023-03-01T13:59:23;100942.16;;;-0.39;79.55
75855;BME280;64502;59.976;30.316;2023-03-01T14:01:59;100935.22;;;-0.35;79.53
75855;BME280;64502;59.976;30.316;2023-03-01T14:04:31;100933.41;;;-0.27;80.08
75855;BME280;64502;59.976;30.316;2023-03-01T14:09:40;100936.75;;;-0.17;78.58
75855;BME280;64502;59.976;30.316;2023-03-01T14:12:30;100937.56;;;-0.11;77.70
75855;BME280;64502;59.976;30.316;2023-03-01T14:18:22;100902.88;;;-0.02;77.64
75855;BME280;64502;59.976;30.316;2023-03-01T14:20:37;100912.28;;;0.05;77.68